• Join FlightAware (Why Join?)
  • Login
  • US Flag 
03:16PM EDT


 

Airport Tracker/Info


-or-


 

Live Flight TrackerFlight Track Log ✈ SWA2248 ✈ 25-Jul-2014 ✈ KSAT - KDAL

Flight Track Log - Related Links

Times and Time Zones

All times are in EDT time to prevent confusion due to time zone crossing. See the SWA2248 flight status page for this flight to view local times or setup timezone preferences in your user account.

Time Position Orientation Groundspeed Altitude Reporting Facility
EDT Latitude Longitude Course Direction KTS MPH feet Rate Location/Type
06:59AM 29.5200 -98.4569 129° Southeast 156 180 1,900  Level Houston Center
07:00AM 29.4983 -98.4261 129° Southeast 199 229 2,800 2,460 Climbing Houston Center
07:01AM 29.4792 -98.3708 112° Southeast 220 253 5,900 3,180 Climbing Houston Center
07:02AM 29.5458 -98.3553 11° North 268 308 8,900 3,120 Climbing Houston Center
07:03AM 29.6281 -98.3622 356° North 298 343 12,200 3,180 Climbing Houston Center
07:04AM 29.7206 -98.3675 357° North 333 383 15,400 3,180 Climbing Houston Center
07:05AM 29.8208 -98.3744 357° North 336 387 18,700 2,880 Climbing Houston Center
07:06AM 29.9206 -98.3797 357° North 357 411 21,300 2,640 Climbing Houston Center
07:07AM 30.0214 -98.3875 356° North 362 417 24,100 2,280 Climbing Houston Center
07:08AM 30.1258 -98.3903 359° North 374 430 25,900 1,920 Climbing Houston Center
07:09AM 30.2333 -98.3733 North 386 444 28,000 1,560 Climbing Houston Center
07:10AM 30.3422 -98.3581 North 402 463 29,100 480 Climbing Houston Center
07:11AM 30.4633 -98.3419 North 430 495 29,000 -60 Descending Houston Center
07:12AM 30.5842 -98.3233 North 435 501 29,000  Level Houston Center
07:13AM 30.7047 -98.3053 North 435 501 29,000  Level Houston Center
07:14AM 30.8222 -98.2831 North 433 498 29,000  Level Houston Center
07:15AM 30.9347 -98.2364 20° North 427 491 29,000  Level Houston Center
07:16AM 31.0467 -98.1925 19° North 427 491 29,000  Level Houston Center
07:17AM 31.1592 -98.1469 19° North 427 491 29,000  Level Houston Center
07:18AM 31.2692 -98.1022 19° North 421 484 29,000  Level Houston Center
07:19AM 31.3806 -98.0567 19° North 421 484 29,000  Level Houston Center
07:20AM 31.4917 -98.0122 19° North 421 484 29,000  Level Houston Center
07:21AM 31.6028 -97.9658 20° North 421 484 29,000  Level Houston Center
07:22AM 31.7142 -97.9208 19° North 421 484 29,000 -480 Level Houston Center
07:23AM 31.8261 -97.8736 20° North 422 486 28,100 -2,280 Descending Houston Center
07:24AM 31.9619 -97.8181 19° North 426 490 24,400 -3,120 Descending Houston Center
07:25AM 32.0772 -97.7731 18° North 405 466 21,700 -2,940 Descending Fort Worth Center
07:26AM 32.1769 -97.7311 20° North 386 444 18,300 -3,000 Descending Fort Worth Center
07:27AM 32.2778 -97.6886 20° North 386 444 15,700 -2,280 Descending Fort Worth Center
07:29AM 32.4167 -97.5667 37° Northeast 329 379 11,900 -1,680 Descending Dallas / Fort Worth TRACON
07:30AM 32.4833 -97.4833 47° Northeast 318 366 11,000 -480 Descending Dallas / Fort Worth TRACON
07:31AM 32.5500 -97.4167 40° Northeast 317 365 11,000  Level Dallas / Fort Worth TRACON
07:32AM 32.6000 -97.3333 55° Northeast 318 366 11,000  Level Dallas / Fort Worth TRACON
07:33AM 32.6667 -97.2667 40° Northeast 283 326 11,000  Level Dallas / Fort Worth TRACON
07:34AM 32.7167 -97.2167 40° Northeast 250 288 11,000 -300 Level Dallas / Fort Worth TRACON
07:35AM 32.7667 -97.1667 40° Northeast 231 266 10,400 -1,440 Descending Dallas / Fort Worth TRACON
07:36AM 32.8500 -97.1667 360° North 243 280 8,100 -2,220 Descending Dallas / Fort Worth TRACON
07:37AM 32.8833 -97.1333 40° Northeast 231 266 6,000 -2,160 Descending Dallas / Fort Worth TRACON
07:38AM 32.9167 -97.0667 59° Northeast 207 238 4,000 -1,020 Descending Dallas / Fort Worth TRACON
07:39AM 32.9167 -97.0000 90° East 166 191 4,000 -540 Level Dallas / Fort Worth TRACON
07:40AM 32.9167 -96.9500 90° East 164 189 3,000 -1,200 Descending Dallas / Fort Worth TRACON
07:41AM 32.8833 -96.9000 128° Southeast 130 150 1,500 -1,020 Descending Dallas / Fort Worth TRACON
07:42AM 32.8667 -96.8833 140° Southeast 124 143 900 -600 Descending Dallas / Fort Worth TRACON